createdAt,value
2022-12-29T00:00:52.265Z,998.87
2022-12-29T00:01:52.133Z,998.89
2022-12-29T00:02:52.299Z,998.81
2022-12-29T00:03:52.228Z,998.86
2022-12-29T00:04:52.132Z,998.79
2022-12-29T00:05:52.150Z,998.79
2022-12-29T00:06:52.115Z,998.76
2022-12-29T00:07:52.112Z,998.75
2022-12-29T00:08:52.132Z,998.72
2022-12-29T00:09:52.122Z,998.76
2022-12-29T00:10:52.097Z,998.75
2022-12-29T00:11:52.094Z,998.69
2022-12-29T00:12:52.102Z,998.58
2022-12-29T00:13:52.086Z,998.58
2022-12-29T00:14:52.091Z,998.61
2022-12-29T00:15:52.112Z,998.50
2022-12-29T00:16:52.099Z,998.52
2022-12-29T00:17:52.068Z,998.51
2022-12-29T00:18:52.067Z,998.48
2022-12-29T00:19:52.064Z,998.46
2022-12-29T00:20:52.061Z,998.45
2022-12-29T00:21:52.072Z,998.39
2022-12-29T00:22:52.050Z,998.46
2022-12-29T00:23:52.049Z,998.58
2022-12-29T00:24:52.055Z,998.44
2022-12-29T00:25:52.043Z,998.41
2022-12-29T00:26:52.038Z,998.43
2022-12-29T00:27:52.035Z,998.43
2022-12-29T00:28:52.026Z,998.46
2022-12-29T00:29:52.034Z,998.36
2022-12-29T00:30:52.045Z,998.40
2022-12-29T00:31:52.114Z,998.32
2022-12-29T00:32:52.011Z,998.41
2022-12-29T00:33:52.003Z,998.37
2022-12-29T00:34:52.010Z,998.33
2022-12-29T00:35:51.996Z,998.29
2022-12-29T00:36:52.001Z,998.30
2022-12-29T00:37:52.021Z,998.34
2022-12-29T00:38:51.991Z,998.37
2022-12-29T00:39:51.981Z,998.31
2022-12-29T00:40:51.976Z,998.26
2022-12-29T00:41:51.974Z,998.27
2022-12-29T00:42:51.968Z,998.25
2022-12-29T00:43:51.969Z,998.28
2022-12-29T00:44:51.976Z,998.33
2022-12-29T00:45:51.962Z,998.38
2022-12-29T00:46:51.998Z,998.40
2022-12-29T00:47:51.951Z,998.40
2022-12-29T00:48:51.947Z,998.36
2022-12-29T00:49:51.950Z,998.31
2022-12-29T00:50:51.934Z,998.26
2022-12-29T00:51:51.936Z,998.12
2022-12-29T00:52:51.926Z,998.27
2022-12-29T00:53:51.945Z,998.21
2022-12-29T00:54:51.919Z,998.29
2022-12-29T00:55:51.934Z,998.23
2022-12-29T00:56:51.911Z,998.27
2022-12-29T00:57:51.909Z,998.16
2022-12-29T00:58:51.903Z,998.08
2022-12-29T00:59:51.902Z,998.19
2022-12-29T01:00:52.085Z,998.15
2022-12-29T01:01:52.029Z,998.17
2022-12-29T01:02:52.041Z,998.12
2022-12-29T01:03:51.886Z,998.13
2022-12-29T01:04:51.880Z,998.10
2022-12-29T01:05:51.871Z,998.08
2022-12-29T01:06:51.876Z,998.09
2022-12-29T01:07:51.874Z,998.06
2022-12-29T01:08:51.865Z,998.06
2022-12-29T01:09:51.924Z,998.07
2022-12-29T01:10:51.858Z,998.03
2022-12-29T01:11:51.860Z,998.04
2022-12-29T01:12:51.849Z,998.08
2022-12-29T01:13:51.852Z,998.06
2022-12-29T01:14:51.837Z,998.08
2022-12-29T01:15:51.900Z,998.05
2022-12-29T01:16:51.833Z,998.12
2022-12-29T01:17:51.829Z,998.17
2022-12-29T01:18:51.823Z,998.18
2022-12-29T01:19:51.820Z,998.18
2022-12-29T01:20:51.820Z,998.15
2022-12-29T01:21:51.815Z,998.19
2022-12-29T01:22:51.805Z,998.32
2022-12-29T01:23:51.800Z,998.30
2022-12-29T01:24:51.796Z,998.27
2022-12-29T01:25:51.819Z,998.31
2022-12-29T01:26:51.993Z,998.33
2022-12-29T01:27:51.791Z,998.28
2022-12-29T01:28:51.783Z,998.39
2022-12-29T01:29:51.779Z,998.33
2022-12-29T01:30:51.776Z,998.27
2022-12-29T01:31:51.828Z,998.28
2022-12-29T01:32:51.772Z,998.24
2022-12-29T01:33:51.765Z,998.26
2022-12-29T01:34:51.756Z,998.26
2022-12-29T01:35:51.756Z,998.22
2022-12-29T01:36:51.764Z,998.23
2022-12-29T01:37:51.755Z,998.20
2022-12-29T01:38:51.746Z,998.13
2022-12-29T01:39:51.736Z,998.21
2022-12-29T01:40:51.745Z,998.25
2022-12-29T01:41:51.751Z,998.23
2022-12-29T01:42:51.732Z,998.16
2022-12-29T01:43:51.722Z,998.12
2022-12-29T01:44:51.718Z,998.13
2022-12-29T01:45:51.779Z,998.18
2022-12-29T01:46:51.709Z,998.12
2022-12-29T01:47:51.708Z,998.14
2022-12-29T01:48:51.703Z,998.20
2022-12-29T01:49:51.704Z,998.07
2022-12-29T01:50:51.703Z,998.00
2022-12-29T01:51:51.709Z,998.05
2022-12-29T01:52:51.707Z,998.01
2022-12-29T01:53:51.687Z,997.97
2022-12-29T01:54:51.680Z,997.96
2022-12-29T01:55:51.676Z,998.08
2022-12-29T01:56:51.671Z,998.03
2022-12-29T01:57:51.703Z,997.94
2022-12-29T01:58:51.663Z,997.92
2022-12-29T01:59:51.661Z,997.93
2022-12-29T02:00:51.703Z,997.91
2022-12-29T02:01:51.859Z,997.91
2022-12-29T02:02:51.689Z,997.85
2022-12-29T02:03:51.644Z,997.89
2022-12-29T02:04:51.640Z,997.79
2022-12-29T02:05:51.635Z,997.85
2022-12-29T02:06:51.638Z,997.78
2022-12-29T02:07:51.637Z,997.83
2022-12-29T02:08:51.624Z,997.79
2022-12-29T02:09:51.624Z,997.83
2022-12-29T02:10:51.616Z,997.84
2022-12-29T02:11:51.614Z,997.77
2022-12-29T02:12:51.614Z,997.77
2022-12-29T02:13:51.631Z,997.83
2022-12-29T02:14:51.603Z,997.79
2022-12-29T02:15:51.599Z,997.82
2022-12-29T02:16:51.672Z,997.79
2022-12-29T02:17:51.589Z,997.80
2022-12-29T02:18:51.592Z,997.74
2022-12-29T02:19:51.577Z,997.81
2022-12-29T02:20:51.576Z,997.77
2022-12-29T02:21:51.573Z,997.74
2022-12-29T02:22:51.569Z,997.81
2022-12-29T02:23:51.563Z,997.75
2022-12-29T02:24:51.565Z,997.74
2022-12-29T02:25:51.558Z,997.71
2022-12-29T02:26:51.563Z,997.71
2022-12-29T02:27:51.557Z,997.79
2022-12-29T02:28:51.562Z,997.67
2022-12-29T02:29:51.576Z,997.58
2022-12-29T02:30:51.542Z,997.74
2022-12-29T02:31:51.605Z,997.65
2022-12-29T02:32:51.544Z,997.67
2022-12-29T02:33:51.525Z,997.67
2022-12-29T02:34:51.521Z,997.68
2022-12-29T02:35:51.521Z,997.68
2022-12-29T02:36:51.527Z,997.54
2022-12-29T02:37:51.508Z,997.65
2022-12-29T02:38:51.507Z,997.66
2022-12-29T02:39:51.504Z,997.50
2022-12-29T02:40:51.499Z,997.48
2022-12-29T02:41:51.494Z,997.51
2022-12-29T02:42:51.504Z,997.52
2022-12-29T02:43:51.498Z,997.48
2022-12-29T02:44:51.507Z,997.44
2022-12-29T02:45:51.584Z,997.49
2022-12-29T02:46:51.475Z,997.52
2022-12-29T02:47:51.472Z,997.44
2022-12-29T02:48:51.475Z,997.49
2022-12-29T02:49:51.463Z,997.45
2022-12-29T02:50:51.461Z,997.37
2022-12-29T02:51:51.457Z,997.44
2022-12-29T02:52:51.469Z,997.44
2022-12-29T02:53:51.448Z,997.44
2022-12-29T02:54:51.447Z,997.38
2022-12-29T02:55:51.438Z,997.39
2022-12-29T02:56:51.438Z,997.39
2022-12-29T02:57:51.432Z,997.39
2022-12-29T02:58:51.444Z,997.43
2022-12-29T02:59:51.428Z,997.32
2022-12-29T03:00:51.463Z,997.35
2022-12-29T03:01:51.653Z,997.29
2022-12-29T03:02:51.544Z,997.27
2022-12-29T03:03:51.413Z,997.27
2022-12-29T03:04:51.409Z,997.32
2022-12-29T03:05:51.407Z,997.28
2022-12-29T03:06:51.399Z,997.28
2022-12-29T03:07:51.398Z,997.28
2022-12-29T03:08:51.414Z,997.28
2022-12-29T03:09:51.394Z,997.25
2022-12-29T03:10:51.386Z,997.28
2022-12-29T03:11:51.379Z,997.33
2022-12-29T03:12:51.380Z,997.24
2022-12-29T03:13:51.377Z,997.13
2022-12-29T03:14:51.371Z,997.13
2022-12-29T03:15:51.370Z,997.16
2022-12-29T03:16:51.370Z,997.09
2022-12-29T03:17:51.380Z,997.14
2022-12-29T03:18:51.356Z,997.10
2022-12-29T03:19:51.358Z,997.16
2022-12-29T03:20:51.349Z,997.07
2022-12-29T03:21:51.343Z,997.16
2022-12-29T03:22:51.341Z,997.13
2022-12-29T03:23:51.343Z,997.15
2022-12-29T03:24:51.334Z,997.07
2022-12-29T03:25:51.327Z,997.04
2022-12-29T03:26:51.527Z,997.06
2022-12-29T03:27:51.322Z,997.07
2022-12-29T03:28:51.328Z,997.03
2022-12-29T03:29:51.311Z,997.00
2022-12-29T03:30:51.387Z,997.07
2022-12-29T03:31:51.306Z,997.02
2022-12-29T03:32:51.302Z,997.02
2022-12-29T03:33:51.316Z,997.05
2022-12-29T03:34:51.295Z,996.95
2022-12-29T03:35:51.290Z,997.04
2022-12-29T03:36:51.286Z,997.05
2022-12-29T03:37:51.281Z,997.05
2022-12-29T03:38:51.283Z,996.98
2022-12-29T03:39:51.278Z,997.12
2022-12-29T03:40:51.270Z,997.07
2022-12-29T03:41:51.269Z,996.97
2022-12-29T03:42:51.265Z,997.01
2022-12-29T03:43:51.262Z,997.00
2022-12-29T03:44:51.261Z,996.95
2022-12-29T03:45:51.354Z,996.93
2022-12-29T03:46:51.251Z,996.92
2022-12-29T03:47:51.248Z,996.89
2022-12-29T03:48:51.244Z,996.91
2022-12-29T03:49:51.262Z,996.91
2022-12-29T03:50:51.239Z,996.89
2022-12-29T03:51:52.090Z,996.88
2022-12-29T03:52:51.232Z,996.93
2022-12-29T03:53:51.223Z,996.90
2022-12-29T03:54:51.328Z,996.89
2022-12-29T03:55:51.218Z,996.95
2022-12-29T03:56:51.218Z,996.88
2022-12-29T03:57:51.216Z,996.93
2022-12-29T03:58:51.214Z,996.89
2022-12-29T03:59:51.199Z,996.87
2022-12-29T04:00:51.207Z,996.79
2022-12-29T04:01:51.343Z,996.80
2022-12-29T04:02:51.447Z,996.80
2022-12-29T04:03:51.277Z,996.75
2022-12-29T04:04:51.185Z,996.80
2022-12-29T04:05:51.202Z,996.79
2022-12-29T04:06:51.186Z,996.81
2022-12-29T04:07:51.172Z,996.79
2022-12-29T04:08:51.168Z,996.75
2022-12-29T04:09:51.163Z,996.77
2022-12-29T04:10:51.167Z,996.65
2022-12-29T04:11:51.165Z,996.65
2022-12-29T04:12:51.154Z,996.59
2022-12-29T04:13:51.149Z,996.57
2022-12-29T04:14:51.159Z,996.48
2022-12-29T04:15:51.208Z,996.57
2022-12-29T04:16:51.146Z,996.60
2022-12-29T04:17:51.146Z,996.57
2022-12-29T04:18:51.139Z,996.61
2022-12-29T04:19:51.130Z,996.61
2022-12-29T04:20:51.125Z,996.59
2022-12-29T04:21:51.143Z,996.69
2022-12-29T04:22:51.127Z,996.66
2022-12-29T04:23:51.122Z,996.71
2022-12-29T04:24:51.112Z,996.74
2022-12-29T04:25:51.107Z,996.72
2022-12-29T04:26:51.102Z,996.81
2022-12-29T04:27:51.097Z,996.75
2022-12-29T04:28:51.107Z,996.69
2022-12-29T04:29:51.093Z,996.75
2022-12-29T04:30:51.161Z,996.82
2022-12-29T04:31:51.284Z,996.84
2022-12-29T04:32:51.079Z,996.84
2022-12-29T04:33:51.076Z,996.87
2022-12-29T04:34:51.076Z,996.82
2022-12-29T04:35:51.067Z,996.89
2022-12-29T04:36:51.080Z,996.89
2022-12-29T04:37:51.180Z,996.92
2022-12-29T04:38:51.060Z,996.92
2022-12-29T04:39:51.055Z,996.89
2022-12-29T04:40:51.067Z,996.90
2022-12-29T04:41:51.059Z,996.89
2022-12-29T04:42:51.059Z,996.96
2022-12-29T04:43:51.053Z,996.91
2022-12-29T04:44:51.068Z,996.87
2022-12-29T04:45:51.034Z,996.86
2022-12-29T04:46:51.173Z,996.87
2022-12-29T04:47:51.049Z,996.89
2022-12-29T04:48:51.046Z,996.89
2022-12-29T04:49:51.016Z,996.85
2022-12-29T04:50:51.019Z,996.90
2022-12-29T04:51:51.014Z,996.87
2022-12-29T04:52:51.011Z,996.91
2022-12-29T04:53:51.021Z,996.86
2022-12-29T04:54:50.998Z,996.84
2022-12-29T04:55:51.006Z,996.89
2022-12-29T04:56:50.995Z,996.97
2022-12-29T04:57:50.992Z,996.94
2022-12-29T04:58:50.986Z,996.95
2022-12-29T04:59:50.982Z,997.02
2022-12-29T05:00:50.989Z,996.78
2022-12-29T05:01:51.112Z,996.96
2022-12-29T05:02:51.114Z,996.98
2022-12-29T05:03:51.057Z,996.91
2022-12-29T05:04:50.978Z,996.95
2022-12-29T05:05:50.959Z,996.94
2022-12-29T05:06:50.958Z,997.07
2022-12-29T05:07:50.955Z,996.93
2022-12-29T05:08:50.953Z,996.92
2022-12-29T05:09:51.174Z,996.97
2022-12-29T05:10:50.947Z,996.95
2022-12-29T05:11:50.941Z,996.97
2022-12-29T05:12:50.936Z,996.91
2022-12-29T05:13:50.936Z,996.93
2022-12-29T05:14:50.929Z,996.92
2022-12-29T05:15:50.965Z,996.97
2022-12-29T05:16:50.939Z,996.92
2022-12-29T05:17:50.915Z,997.01
2022-12-29T05:18:50.920Z,997.04
2022-12-29T05:19:50.914Z,997.00
2022-12-29T05:20:50.931Z,997.09
2022-12-29T05:21:50.900Z,997.06
2022-12-29T05:22:50.901Z,997.04
2022-12-29T05:23:50.898Z,997.11
2022-12-29T05:24:50.891Z,997.01
2022-12-29T05:25:50.913Z,997.12
2022-12-29T05:26:50.885Z,997.14
2022-12-29T05:27:50.881Z,997.10
2022-12-29T05:28:50.880Z,997.17
2022-12-29T05:29:50.877Z,997.22
2022-12-29T05:30:50.872Z,997.09
2022-12-29T05:31:50.878Z,997.14
2022-12-29T05:32:50.865Z,997.13
2022-12-29T05:33:50.864Z,997.20
2022-12-29T05:34:50.855Z,997.06
2022-12-29T05:35:50.857Z,997.17
2022-12-29T05:36:50.852Z,997.08
2022-12-29T05:37:50.852Z,997.14
2022-12-29T05:38:50.843Z,997.06
2022-12-29T05:39:50.845Z,997.10
2022-12-29T05:40:50.841Z,997.06
2022-12-29T05:41:50.875Z,997.04
2022-12-29T05:42:50.825Z,997.08
2022-12-29T05:43:50.822Z,997.11
2022-12-29T05:44:50.821Z,997.05
2022-12-29T05:45:50.821Z,997.11
2022-12-29T05:46:50.900Z,997.13
2022-12-29T05:47:50.808Z,997.17
2022-12-29T05:48:50.806Z,997.13
2022-12-29T05:49:50.800Z,997.16
2022-12-29T05:50:50.804Z,997.15
2022-12-29T05:51:50.796Z,997.12
2022-12-29T05:52:50.795Z,997.05
2022-12-29T05:53:50.787Z,997.20
2022-12-29T05:54:50.805Z,997.03
2022-12-29T05:55:50.779Z,997.07
2022-12-29T05:56:50.781Z,997.24
2022-12-29T05:57:50.808Z,997.19
2022-12-29T05:58:50.771Z,997.04
2022-12-29T05:59:50.769Z,997.11
2022-12-29T06:00:50.763Z,997.16
2022-12-29T06:01:50.986Z,997.21
2022-12-29T06:02:50.905Z,997.26
2022-12-29T06:03:50.897Z,997.27
2022-12-29T06:04:50.751Z,997.21
2022-12-29T06:05:50.746Z,997.25
2022-12-29T06:06:50.754Z,997.36
2022-12-29T06:07:50.738Z,997.34
2022-12-29T06:08:50.750Z,997.27
2022-12-29T06:09:50.733Z,997.27
2022-12-29T06:10:50.737Z,997.39
2022-12-29T06:11:50.724Z,997.35
2022-12-29T06:12:50.724Z,997.37
2022-12-29T06:13:50.743Z,997.46
2022-12-29T06:14:50.724Z,997.38
2022-12-29T06:15:50.727Z,997.45
2022-12-29T06:16:50.756Z,997.44
2022-12-29T06:17:50.719Z,997.45
2022-12-29T06:18:50.706Z,997.34
2022-12-29T06:19:50.709Z,997.36
2022-12-29T06:20:50.725Z,997.31
2022-12-29T06:21:50.691Z,997.37
2022-12-29T06:22:50.698Z,997.31
2022-12-29T06:23:50.681Z,997.38
2022-12-29T06:24:50.685Z,997.40
2022-12-29T06:25:50.671Z,997.39
2022-12-29T06:26:50.671Z,997.39
2022-12-29T06:27:50.667Z,997.44
2022-12-29T06:28:50.672Z,997.43
2022-12-29T06:29:50.710Z,997.45
2022-12-29T06:30:50.675Z,997.44
2022-12-29T06:31:50.719Z,997.52
2022-12-29T06:32:50.652Z,997.53
2022-12-29T06:33:50.663Z,997.59
2022-12-29T06:34:50.663Z,997.57
2022-12-29T06:35:50.661Z,997.67
2022-12-29T06:36:50.990Z,997.63
2022-12-29T06:37:50.633Z,997.68
2022-12-29T06:38:50.637Z,997.65
2022-12-29T06:39:50.627Z,997.75
2022-12-29T06:40:50.621Z,997.73
2022-12-29T06:41:50.618Z,997.72
2022-12-29T06:42:50.615Z,997.76
2022-12-29T06:43:50.613Z,997.78
2022-12-29T06:44:50.631Z,997.84
2022-12-29T06:45:50.682Z,997.74
2022-12-29T06:46:50.599Z,997.79
2022-12-29T06:47:50.597Z,997.77
2022-12-29T06:48:50.604Z,997.83
2022-12-29T06:49:50.592Z,997.86
2022-12-29T06:50:50.580Z,997.85
2022-12-29T06:51:50.582Z,997.83
2022-12-29T06:52:50.578Z,997.79
2022-12-29T06:53:50.579Z,997.85
2022-12-29T06:54:50.576Z,997.84
2022-12-29T06:55:50.572Z,997.86
2022-12-29T06:56:50.569Z,997.88
2022-12-29T06:57:50.588Z,997.94
2022-12-29T06:58:50.569Z,997.83
2022-12-29T06:59:50.567Z,997.89
2022-12-29T07:00:50.569Z,997.76
2022-12-29T07:01:50.669Z,997.84
2022-12-29T07:02:50.690Z,997.87
2022-12-29T07:03:50.541Z,997.84
2022-12-29T07:04:50.541Z,997.86
2022-12-29T07:05:50.532Z,997.95
2022-12-29T07:06:50.527Z,997.88
2022-12-29T07:07:50.532Z,997.84
2022-12-29T07:08:50.523Z,997.84
2022-12-29T07:09:50.523Z,997.79
2022-12-29T07:10:50.524Z,997.82
2022-12-29T07:11:50.513Z,997.82
2022-12-29T07:12:50.510Z,997.83
2022-12-29T07:13:50.510Z,997.84
2022-12-29T07:14:50.498Z,997.88
2022-12-29T07:15:50.497Z,997.89
2022-12-29T07:16:50.605Z,997.87
2022-12-29T07:17:50.531Z,997.88
2022-12-29T07:18:50.485Z,997.83
2022-12-29T07:19:50.491Z,997.87
2022-12-29T07:20:50.477Z,997.97
2022-12-29T07:21:50.478Z,997.93
2022-12-29T07:22:50.473Z,998.02
2022-12-29T07:23:50.474Z,997.91
2022-12-29T07:24:50.467Z,998.01
2022-12-29T07:25:50.463Z,998.04
2022-12-29T07:26:50.461Z,998.02
2022-12-29T07:27:50.463Z,997.93
2022-12-29T07:28:50.454Z,997.95
2022-12-29T07:29:50.450Z,998.00
2022-12-29T07:30:50.443Z,998.03
2022-12-29T07:31:50.478Z,998.00
2022-12-29T07:32:50.438Z,997.99
2022-12-29T07:33:50.465Z,998.08
2022-12-29T07:34:50.434Z,998.16
2022-12-29T07:35:50.426Z,998.20
2022-12-29T07:36:50.424Z,998.21
2022-12-29T07:37:50.422Z,998.23
2022-12-29T07:38:50.416Z,998.28
2022-12-29T07:39:50.411Z,998.28
2022-12-29T07:40:50.407Z,998.30
2022-12-29T07:41:50.403Z,998.25
2022-12-29T07:42:50.406Z,998.34
2022-12-29T07:43:50.397Z,998.34
2022-12-29T07:44:50.401Z,998.40
2022-12-29T07:45:50.416Z,998.41
2022-12-29T07:46:54.325Z,998.40
2022-12-29T07:47:50.396Z,998.50
2022-12-29T07:48:50.380Z,998.46
2022-12-29T07:49:50.399Z,998.45
2022-12-29T07:50:50.370Z,998.55
2022-12-29T07:51:50.388Z,998.58
2022-12-29T07:52:50.363Z,998.60
2022-12-29T07:53:50.371Z,998.59
2022-12-29T07:54:50.356Z,998.55
2022-12-29T07:55:50.364Z,998.62
2022-12-29T07:56:50.355Z,998.50
2022-12-29T07:57:50.358Z,998.59
2022-12-29T07:58:50.345Z,998.64
2022-12-29T07:59:50.353Z,998.71
2022-12-29T08:00:50.347Z,998.73
2022-12-29T08:01:50.437Z,998.64
2022-12-29T08:02:50.329Z,998.67
2022-12-29T08:03:56.907Z,998.65
2022-12-29T08:04:50.320Z,998.65
2022-12-29T08:05:50.347Z,998.60
2022-12-29T08:06:50.312Z,998.67
2022-12-29T08:07:50.319Z,998.61
2022-12-29T08:08:50.325Z,998.52
2022-12-29T08:09:50.307Z,998.58
2022-12-29T08:10:50.299Z,998.60
2022-12-29T08:11:50.330Z,998.56
2022-12-29T08:12:50.290Z,998.56
2022-12-29T08:13:50.291Z,998.64
2022-12-29T08:14:50.290Z,998.64
2022-12-29T08:15:50.303Z,998.61
2022-12-29T08:16:50.293Z,998.69
2022-12-29T08:17:50.300Z,998.67
2022-12-29T08:18:50.288Z,998.71
2022-12-29T08:19:50.272Z,998.70
2022-12-29T08:20:55.619Z,998.69
2022-12-29T08:21:50.291Z,998.73
2022-12-29T08:22:50.255Z,998.68
2022-12-29T08:23:50.257Z,998.72
2022-12-29T08:24:50.250Z,998.67
2022-12-29T08:25:50.250Z,998.71
2022-12-29T08:26:50.244Z,998.72
2022-12-29T08:27:50.241Z,998.75
2022-12-29T08:28:50.237Z,998.71
2022-12-29T08:29:50.234Z,998.69
2022-12-29T08:30:50.294Z,998.68
2022-12-29T08:31:50.241Z,998.65
2022-12-29T08:32:50.229Z,998.69
2022-12-29T08:33:50.230Z,998.72
2022-12-29T08:34:50.220Z,998.69
2022-12-29T08:35:50.216Z,998.65
2022-12-29T08:36:50.666Z,998.69
2022-12-29T08:37:50.220Z,998.68
2022-12-29T08:38:50.205Z,998.67
2022-12-29T08:39:50.198Z,998.72
2022-12-29T08:40:50.192Z,998.59
2022-12-29T08:41:50.190Z,998.63
2022-12-29T08:42:50.192Z,998.69
2022-12-29T08:43:50.193Z,998.72
2022-12-29T08:44:50.176Z,998.81
2022-12-29T08:45:50.180Z,998.78
2022-12-29T08:46:50.254Z,998.89
2022-12-29T08:47:50.169Z,998.98
2022-12-29T08:48:50.164Z,999.04
2022-12-29T08:49:50.160Z,999.17
2022-12-29T08:50:50.160Z,999.17
2022-12-29T08:51:50.156Z,999.09
2022-12-29T08:52:50.152Z,998.99
2022-12-29T08:53:50.172Z,998.98
2022-12-29T08:54:50.153Z,999.12
2022-12-29T08:55:50.152Z,999.07
2022-12-29T08:56:50.135Z,999.05
2022-12-29T08:57:50.133Z,999.05
2022-12-29T08:58:50.129Z,999.08
2022-12-29T08:59:50.166Z,999.18
2022-12-29T09:00:50.122Z,999.17
2022-12-29T09:01:50.314Z,999.18
2022-12-29T09:02:50.304Z,999.20
2022-12-29T09:04:50.149Z,999.12
2022-12-29T09:05:50.102Z,999.08
2022-12-29T09:06:50.117Z,999.07
2022-12-29T09:07:50.111Z,998.98
2022-12-29T09:08:50.098Z,999.08
2022-12-29T09:09:50.116Z,999.11
2022-12-29T09:10:50.082Z,999.09
2022-12-29T09:11:50.083Z,999.09
2022-12-29T09:12:50.075Z,999.12
2022-12-29T09:13:50.114Z,999.12
2022-12-29T09:14:50.074Z,999.14
2022-12-29T09:15:50.089Z,999.15
2022-12-29T09:16:50.060Z,999.15
2022-12-29T09:17:50.059Z,999.16
2022-12-29T09:18:50.053Z,999.21
2022-12-29T09:19:50.050Z,999.18
2022-12-29T09:20:50.050Z,999.21
2022-12-29T09:21:50.046Z,999.25
2022-12-29T09:22:50.041Z,999.32
2022-12-29T09:23:50.036Z,999.30
2022-12-29T09:24:50.038Z,999.27
2022-12-29T09:25:50.048Z,999.34
2022-12-29T09:26:50.042Z,999.23
2022-12-29T09:27:50.027Z,999.38
2022-12-29T09:28:50.047Z,999.37
2022-12-29T09:29:50.028Z,999.44
2022-12-29T09:30:50.010Z,999.48
2022-12-29T09:31:50.070Z,999.41
2022-12-29T09:32:55.015Z,999.51
2022-12-29T09:33:50.017Z,999.52
2022-12-29T09:34:50.002Z,999.56
2022-12-29T09:35:49.997Z,999.54
2022-12-29T09:36:49.990Z,999.48
2022-12-29T09:37:50.185Z,999.53
2022-12-29T09:38:49.990Z,999.64
2022-12-29T09:39:54.333Z,999.60
2022-12-29T09:40:49.978Z,999.56
2022-12-29T09:41:49.995Z,999.60
2022-12-29T09:42:49.968Z,999.60
2022-12-29T09:43:49.964Z,999.55
2022-12-29T09:44:49.968Z,999.63
2022-12-29T09:45:49.962Z,999.64
2022-12-29T09:46:50.000Z,999.59
2022-12-29T09:47:49.953Z,999.68
2022-12-29T09:48:49.960Z,999.62
2022-12-29T09:49:49.951Z,999.61
2022-12-29T09:50:49.945Z,999.55
2022-12-29T09:51:49.951Z,999.68
2022-12-29T09:52:49.942Z,999.62
2022-12-29T09:53:49.929Z,999.67
2022-12-29T09:54:58.101Z,999.61
2022-12-29T09:55:49.927Z,999.60
2022-12-29T09:56:49.925Z,999.62
2022-12-29T09:57:49.939Z,999.58
2022-12-29T09:58:49.933Z,999.65
2022-12-29T09:59:49.929Z,999.62
2022-12-29T10:00:55.088Z,999.63
2022-12-29T10:01:50.084Z,999.67
2022-12-29T10:02:50.192Z,999.73
2022-12-29T10:03:49.895Z,999.60
2022-12-29T10:04:49.892Z,999.69
2022-12-29T10:05:49.893Z,999.66
2022-12-29T10:07:27.455Z,999.69
2022-12-29T10:07:49.883Z,999.61
2022-12-29T10:08:49.875Z,999.50
2022-12-29T10:09:49.871Z,999.44
2022-12-29T10:10:49.868Z,999.56
2022-12-29T10:11:49.867Z,999.51
2022-12-29T10:12:49.861Z,999.56
2022-12-29T10:13:49.881Z,999.45
2022-12-29T10:14:49.859Z,999.53
2022-12-29T10:15:49.848Z,999.51
2022-12-29T10:16:49.876Z,999.53
2022-12-29T10:17:49.851Z,999.44
2022-12-29T10:18:49.848Z,999.55
2022-12-29T10:19:49.842Z,999.58
2022-12-29T10:20:49.838Z,999.66
2022-12-29T10:21:49.841Z,999.46
2022-12-29T10:22:49.821Z,999.57
2022-12-29T10:23:49.817Z,999.59
2022-12-29T10:24:49.814Z,999.59
2022-12-29T10:25:49.812Z,999.68
2022-12-29T10:26:49.810Z,999.58
2022-12-29T10:27:49.900Z,999.55
2022-12-29T10:28:49.799Z,999.65
2022-12-29T10:29:49.816Z,999.62
2022-12-29T10:30:49.793Z,999.73
2022-12-29T10:31:49.818Z,999.66
2022-12-29T10:32:49.804Z,999.69
2022-12-29T10:33:49.781Z,999.70
2022-12-29T10:34:49.787Z,999.72
2022-12-29T10:35:49.783Z,999.63
2022-12-29T10:36:49.888Z,999.61
2022-12-29T10:37:49.769Z,999.60
2022-12-29T10:38:49.761Z,999.84
2022-12-29T10:39:49.763Z,999.67
2022-12-29T10:40:49.755Z,999.85
2022-12-29T10:41:49.812Z,999.79
2022-12-29T10:42:50.166Z,999.76
2022-12-29T10:43:49.760Z,999.73
2022-12-29T10:44:49.744Z,999.77
2022-12-29T10:45:49.861Z,999.76
2022-12-29T10:46:49.731Z,999.87
2022-12-29T10:47:49.731Z,999.86
2022-12-29T10:48:49.726Z,999.83
2022-12-29T10:49:49.732Z,999.91
2022-12-29T10:50:49.723Z,999.90
2022-12-29T10:51:49.715Z,999.89
2022-12-29T10:52:49.723Z,999.64
2022-12-29T10:53:49.712Z,999.85
2022-12-29T10:54:49.714Z,999.90
2022-12-29T10:55:49.702Z,999.89
2022-12-29T10:56:49.701Z,999.96
2022-12-29T10:57:49.693Z,999.81
2022-12-29T10:58:50.047Z,999.87
2022-12-29T10:59:49.725Z,999.83
2022-12-29T11:00:49.758Z,999.89
2022-12-29T11:01:49.873Z,999.93
2022-12-29T11:02:49.887Z,999.97
2022-12-29T11:03:49.682Z,999.93
2022-12-29T11:04:49.674Z,999.95
2022-12-29T11:05:49.666Z,999.86
2022-12-29T11:06:49.670Z,1000.04
2022-12-29T11:07:49.812Z,1000.03
2022-12-29T11:08:49.662Z,999.94
2022-12-29T11:09:49.656Z,1000.00
2022-12-29T11:10:49.697Z,1000.03
2022-12-29T11:11:49.665Z,1000.03
2022-12-29T11:12:49.663Z,1000.06
2022-12-29T11:13:49.668Z,1000.11
2022-12-29T11:14:49.670Z,1000.06
2022-12-29T11:15:49.637Z,1000.11
2022-12-29T11:16:49.751Z,1000.13
2022-12-29T11:17:49.684Z,1000.21
2022-12-29T11:18:49.625Z,1000.03
2022-12-29T11:19:49.676Z,1000.17
2022-12-29T11:20:49.618Z,1000.16
2022-12-29T11:21:49.656Z,1000.19
2022-12-29T11:22:49.649Z,1000.11
2022-12-29T11:23:49.624Z,1000.19
2022-12-29T11:24:49.632Z,1000.14
2022-12-29T11:25:49.595Z,1000.16
2022-12-29T11:26:49.603Z,1000.07
2022-12-29T11:27:49.595Z,1000.15
2022-12-29T11:28:49.598Z,1000.20
2022-12-29T11:29:49.590Z,1000.28
2022-12-29T11:30:49.583Z,1000.31
2022-12-29T11:31:49.753Z,1000.38
2022-12-29T11:32:49.575Z,1000.27
2022-12-29T11:33:49.602Z,1000.39
2022-12-29T11:34:49.572Z,1000.40
2022-12-29T11:35:49.582Z,1000.20
2022-12-29T11:36:49.559Z,1000.36
2022-12-29T11:37:49.554Z,1000.31
2022-12-29T11:38:49.554Z,1000.62
2022-12-29T11:39:49.548Z,1000.35
2022-12-29T11:40:49.549Z,1000.39
2022-12-29T11:41:49.541Z,1000.38
2022-12-29T11:42:49.548Z,1000.35
2022-12-29T11:43:49.532Z,1000.38
2022-12-29T11:44:49.528Z,1000.44
2022-12-29T11:45:49.557Z,1000.35
2022-12-29T11:46:49.522Z,1000.41
2022-12-29T11:47:49.777Z,1000.40
2022-12-29T11:48:49.518Z,1000.35
2022-12-29T11:49:49.543Z,1000.40
2022-12-29T11:50:49.512Z,1000.29
2022-12-29T11:51:49.505Z,1000.35
2022-12-29T11:52:49.504Z,1000.40
2022-12-29T11:53:49.506Z,1000.38
2022-12-29T11:54:49.494Z,1000.51
2022-12-29T11:55:49.491Z,1000.40
2022-12-29T11:56:49.489Z,1000.55
2022-12-29T11:57:49.481Z,1000.57
2022-12-29T11:58:49.487Z,1000.48
2022-12-29T11:59:49.483Z,1000.46
2022-12-29T12:00:49.479Z,1000.55
2022-12-29T12:01:49.519Z,1000.48
2022-12-29T12:02:49.617Z,1000.56
2022-12-29T12:03:49.602Z,1000.48
2022-12-29T12:04:49.458Z,1000.56
2022-12-29T12:05:49.476Z,1000.53
2022-12-29T12:06:49.464Z,1000.53
2022-12-29T12:07:49.450Z,1000.68
2022-12-29T12:08:49.457Z,1000.55
2022-12-29T12:09:49.444Z,1000.53
2022-12-29T12:10:49.441Z,1000.52
2022-12-29T12:11:49.434Z,1000.71
2022-12-29T12:12:49.433Z,1000.65
2022-12-29T12:13:49.432Z,1000.69
2022-12-29T12:14:49.427Z,1000.69
2022-12-29T12:15:54.479Z,1000.66
2022-12-29T12:16:49.454Z,1000.65
2022-12-29T12:17:49.408Z,1000.61
2022-12-29T12:18:49.441Z,1000.73
2022-12-29T12:19:49.402Z,1000.73
2022-12-29T12:20:49.401Z,1000.68
2022-12-29T12:21:49.423Z,1000.57
2022-12-29T12:22:49.394Z,1000.73
2022-12-29T12:23:49.390Z,1000.67
2022-12-29T12:24:49.385Z,1000.68
2022-12-29T12:25:49.382Z,1000.69
2022-12-29T12:26:49.379Z,1000.68